createdAt,value
2022-11-09T00:01:49.468Z,28.00
2022-11-09T00:04:51.356Z,28.10
2022-11-09T00:07:53.475Z,28.00
2022-11-09T00:10:55.599Z,27.80
2022-11-09T00:13:57.748Z,27.80
2022-11-09T00:17:00.025Z,27.80
2022-11-09T00:20:02.217Z,27.80
2022-11-09T00:23:04.098Z,27.80
2022-11-09T00:26:08.309Z,27.80
2022-11-09T00:29:10.189Z,27.90
2022-11-09T00:32:12.533Z,27.90
2022-11-09T00:35:14.491Z,27.90
2022-11-09T00:38:16.682Z,27.80
2022-11-09T00:41:19.312Z,27.70
2022-11-09T00:44:21.691Z,27.80
2022-11-09T00:47:23.612Z,27.70
2022-11-09T00:50:25.837Z,27.60
2022-11-09T00:53:28.074Z,27.50
2022-11-09T00:56:30.208Z,27.60
2022-11-09T00:59:32.060Z,27.60
2022-11-09T01:02:34.530Z,27.60
2022-11-09T01:05:39.551Z,27.50
2022-11-09T01:08:41.825Z,27.60
2022-11-09T01:11:43.769Z,27.60
2022-11-09T01:14:45.986Z,27.60
2022-11-09T01:17:47.927Z,27.60
2022-11-09T01:20:51.122Z,27.60
2022-11-09T01:23:53.222Z,27.70
2022-11-09T01:26:55.373Z,27.70
2022-11-09T01:29:57.216Z,27.60
2022-11-09T01:32:59.442Z,27.60
2022-11-09T01:36:13.765Z,27.60
2022-11-09T01:39:15.910Z,27.50
2022-11-09T01:42:26.377Z,27.40
2022-11-09T01:45:30.342Z,27.60
2022-11-09T01:48:58.683Z,27.50
2022-11-09T01:52:14.174Z,27.40
2022-11-09T01:55:20.003Z,27.40
2022-11-09T01:58:28.763Z,27.40
2022-11-09T02:01:33.062Z,27.40
2022-11-09T02:04:46.498Z,27.40
2022-11-09T02:07:50.109Z,27.30
2022-11-09T02:11:01.693Z,27.80
2022-11-09T02:14:04.394Z,27.40
2022-11-09T02:17:07.705Z,27.30
2022-11-09T02:20:16.652Z,27.30
2022-11-09T02:23:20.147Z,27.30
2022-11-09T02:26:33.772Z,27.40
2022-11-09T02:29:40.560Z,27.50
2022-11-09T02:32:42.594Z,27.50
2022-11-09T02:35:44.843Z,27.50
2022-11-09T02:38:46.813Z,27.60
2022-11-09T02:42:01.459Z,27.50
2022-11-09T02:45:05.029Z,27.60
2022-11-09T02:48:07.288Z,27.40
2022-11-09T02:51:09.226Z,27.40
2022-11-09T02:54:12.747Z,27.50
2022-11-09T02:57:14.725Z,27.40
2022-11-09T03:00:24.073Z,27.40
2022-11-09T03:03:26.037Z,27.30
2022-11-09T03:06:34.651Z,27.30
2022-11-09T03:09:36.810Z,27.30
2022-11-09T03:12:39.013Z,27.30
2022-11-09T03:15:44.036Z,27.40
2022-11-09T03:18:46.173Z,27.50
2022-11-09T03:21:48.033Z,27.40
2022-11-09T03:24:50.293Z,27.40
2022-11-09T03:27:58.004Z,27.40
2022-11-09T03:31:00.229Z,27.40
2022-11-09T03:34:02.216Z,27.30
2022-11-09T03:37:04.373Z,27.30
2022-11-09T03:40:06.964Z,27.30
2022-11-09T03:43:09.321Z,27.30
2022-11-09T03:46:11.233Z,27.40
2022-11-09T03:49:13.498Z,27.30
2022-11-09T03:52:17.867Z,27.40
2022-11-09T03:55:20.108Z,27.40
2022-11-09T03:58:21.958Z,27.30
2022-11-09T04:01:24.336Z,27.30
2022-11-09T04:04:26.278Z,27.40
2022-11-09T04:07:28.475Z,27.30
2022-11-09T04:10:30.345Z,27.40
2022-11-09T04:13:32.602Z,27.40
2022-11-09T04:16:34.655Z,27.40
2022-11-09T04:19:36.884Z,27.40
2022-11-09T04:22:41.745Z,27.40
2022-11-09T04:25:43.914Z,27.30
2022-11-09T04:28:45.840Z,27.20
2022-11-09T04:31:51.737Z,27.20
2022-11-09T04:34:53.744Z,27.20
2022-11-09T04:38:06.789Z,27.70
2022-11-09T04:41:08.819Z,27.20
2022-11-09T04:44:10.966Z,27.20
2022-11-09T04:47:12.932Z,27.20
2022-11-09T04:50:15.288Z,27.10
2022-11-09T04:53:19.733Z,27.20
2022-11-09T04:56:22.315Z,27.20
2022-11-09T04:59:24.237Z,27.20
2022-11-09T05:02:27.634Z,27.20
2022-11-09T05:05:30.061Z,27.40
2022-11-09T05:08:35.290Z,27.30
2022-11-09T05:11:37.544Z,27.40
2022-11-09T05:14:39.707Z,27.40
2022-11-09T05:17:41.653Z,27.30
2022-11-09T05:20:43.806Z,27.30
2022-11-09T05:24:01.551Z,27.30
2022-11-09T05:27:05.039Z,27.10
2022-11-09T05:30:07.731Z,27.00
2022-11-09T05:33:11.269Z,27.00
2022-11-09T05:36:13.153Z,26.90
2022-11-09T05:39:15.287Z,26.90
2022-11-09T05:42:18.374Z,27.00
2022-11-09T05:45:41.632Z,27.00
2022-11-09T05:48:43.839Z,26.90
2022-11-09T05:51:48.532Z,26.90
2022-11-09T05:54:50.384Z,26.90
2022-11-09T05:57:54.546Z,26.70
2022-11-09T06:00:56.705Z,26.80
2022-11-09T06:03:58.914Z,27.20
2022-11-09T06:07:01.039Z,27.10
2022-11-09T06:10:04.645Z,27.00
2022-11-09T06:13:06.914Z,27.10
2022-11-09T06:16:10.272Z,27.20
2022-11-09T06:19:13.160Z,27.20
2022-11-09T06:22:15.703Z,27.20
2022-11-09T06:25:17.587Z,27.20
2022-11-09T06:28:20.312Z,27.20
2022-11-09T06:31:22.475Z,27.20
2022-11-09T06:34:24.914Z,27.20
2022-11-09T06:37:26.848Z,27.40
2022-11-09T06:40:29.719Z,27.50
2022-11-09T06:43:31.665Z,27.50
2022-11-09T06:46:34.186Z,27.50
2022-11-09T06:49:36.059Z,27.80
2022-11-09T06:52:39.789Z,27.90
2022-11-09T06:55:48.815Z,27.80
2022-11-09T06:58:52.890Z,27.70
2022-11-09T07:02:00.173Z,27.70
2022-11-09T07:05:03.695Z,27.70
2022-11-09T07:08:05.969Z,27.60
2022-11-09T07:11:13.391Z,27.60
2022-11-09T07:14:15.287Z,27.60
2022-11-09T07:17:18.248Z,27.60
2022-11-09T07:20:22.388Z,27.60
2022-11-09T07:23:24.997Z,27.60
2022-11-09T07:26:27.466Z,27.50
2022-11-09T07:29:29.666Z,27.40
2022-11-09T07:33:02.496Z,27.50
2022-11-09T07:35:59.551Z,27.50
2022-11-09T07:39:04.343Z,27.70
2022-11-09T07:42:09.355Z,27.60
2022-11-09T07:45:11.984Z,27.60
2022-11-09T07:48:14.271Z,27.70
2022-11-09T07:51:18.711Z,27.50
2022-11-09T07:54:28.803Z,27.70
2022-11-09T07:57:33.955Z,27.70
2022-11-09T08:00:38.227Z,27.70
2022-11-09T08:03:40.122Z,27.70
2022-11-09T08:06:42.723Z,27.80
2022-11-09T08:09:44.811Z,27.80
2022-11-09T08:12:53.887Z,28.00
2022-11-09T08:16:27.876Z,27.80
2022-11-09T08:19:30.127Z,27.60
2022-11-09T08:22:32.052Z,27.70
2022-11-09T08:25:37.914Z,27.80
2022-11-09T08:28:39.836Z,28.10
2022-11-09T08:31:42.184Z,28.20
2022-11-09T08:34:48.304Z,27.70
2022-11-09T08:37:52.345Z,27.80
2022-11-09T08:40:58.728Z,27.90
2022-11-09T08:44:01.006Z,27.60
2022-11-09T08:47:03.047Z,27.70
2022-11-09T08:50:08.835Z,27.50
2022-11-09T08:53:11.050Z,27.40
2022-11-09T08:56:13.346Z,27.70
2022-11-09T08:59:18.175Z,27.00
2022-11-09T09:02:23.724Z,27.10
2022-11-09T09:05:26.690Z,27.00
2022-11-09T09:08:29.439Z,27.70
2022-11-09T09:11:31.437Z,27.70
2022-11-09T09:14:34.191Z,27.40
2022-11-09T09:17:36.101Z,27.30
2022-11-09T09:20:38.287Z,27.30
2022-11-09T09:23:40.296Z,27.20
2022-11-09T09:26:43.992Z,27.30
2022-11-09T09:29:46.100Z,27.00
2022-11-09T09:32:48.315Z,27.00
2022-11-09T09:35:54.627Z,27.30
2022-11-09T09:38:56.859Z,27.00
2022-11-09T09:42:02.423Z,26.80
2022-11-09T09:45:27.035Z,26.90
2022-11-09T09:48:50.647Z,26.90
2022-11-09T09:52:00.087Z,26.90
2022-11-09T09:55:12.795Z,27.40
2022-11-09T09:58:23.714Z,27.40
2022-11-09T10:01:40.861Z,27.70
2022-11-09T10:04:43.398Z,27.00
2022-11-09T10:08:07.128Z,27.00
2022-11-09T10:11:16.768Z,26.90
2022-11-09T10:14:32.645Z,27.00
2022-11-09T10:18:14.461Z,27.20
2022-11-09T10:21:38.100Z,27.30
2022-11-09T10:25:31.999Z,27.40
2022-11-09T10:28:42.394Z,27.70
2022-11-09T10:31:57.652Z,27.40
2022-11-09T10:35:17.218Z,27.30
2022-11-09T10:38:26.050Z,27.50
2022-11-09T10:41:48.489Z,27.40
2022-11-09T10:44:50.738Z,28.00
2022-11-09T10:47:52.998Z,27.60
2022-11-09T10:50:55.328Z,27.70
2022-11-09T10:54:26.488Z,27.90
2022-11-09T10:57:28.606Z,27.00
2022-11-09T11:00:30.614Z,26.20
2022-11-09T11:03:36.655Z,26.30
2022-11-09T11:06:38.622Z,26.10
2022-11-09T11:09:42.395Z,26.20
2022-11-09T11:12:57.510Z,25.90
2022-11-09T11:15:59.733Z,25.90
2022-11-09T11:19:02.721Z,26.00
2022-11-09T11:22:14.487Z,26.40
2022-11-09T11:25:24.963Z,26.00
2022-11-09T11:28:57.274Z,25.60
2022-11-09T11:31:59.157Z,25.80
2022-11-09T11:35:07.146Z,25.70
2022-11-09T11:38:25.381Z,25.90
2022-11-09T11:41:36.456Z,26.10
2022-11-09T11:45:25.627Z,26.10
2022-11-09T11:48:46.231Z,26.30
2022-11-09T11:52:14.696Z,26.00
2022-11-09T11:55:29.686Z,26.00
2022-11-09T11:58:59.379Z,25.80
2022-11-09T12:02:27.115Z,25.80
2022-11-09T12:05:48.087Z,25.70
2022-11-09T12:09:16.889Z,26.00
2022-11-09T12:12:41.535Z,26.30
2022-11-09T12:16:08.582Z,26.10
2022-11-09T12:19:46.151Z,26.10
2022-11-09T12:23:00.653Z,25.90
2022-11-09T12:26:33.609Z,26.00
2022-11-09T12:30:00.461Z,25.90
2022-11-09T12:33:33.493Z,26.00
2022-11-09T12:37:01.366Z,26.30
2022-11-09T12:40:26.443Z,26.10
2022-11-09T12:43:41.855Z,26.10
2022-11-09T12:46:51.321Z,25.90
2022-11-09T12:49:55.968Z,25.90
2022-11-09T12:53:00.261Z,25.80
2022-11-09T12:56:05.191Z,26.20
2022-11-09T12:59:29.236Z,26.10
2022-11-09T13:02:55.258Z,26.10
2022-11-09T13:06:09.604Z,26.20
2022-11-09T13:09:25.908Z,26.10
2022-11-09T13:12:35.271Z,26.10
2022-11-09T13:16:10.192Z,26.60
2022-11-09T13:19:34.759Z,26.90
2022-11-09T13:22:42.647Z,26.80
2022-11-09T13:25:53.156Z,27.30
2022-11-09T13:29:26.168Z,28.20
2022-11-09T13:32:33.452Z,27.70
2022-11-09T13:35:56.268Z,27.70
2022-11-09T13:39:24.046Z,27.50
2022-11-09T13:42:35.931Z,27.90
2022-11-09T13:45:53.627Z,27.60
2022-11-09T13:48:56.136Z,27.70
2022-11-09T13:51:58.003Z,27.90
2022-11-09T13:55:00.483Z,27.70
2022-11-09T13:58:29.945Z,28.10
2022-11-09T14:01:46.331Z,28.20
2022-11-09T14:04:48.660Z,28.10
2022-11-09T14:07:50.850Z,27.90
2022-11-09T14:10:52.832Z,27.90
2022-11-09T14:14:22.656Z,28.00
2022-11-09T14:17:52.691Z,28.10
2022-11-09T14:21:08.491Z,28.30
2022-11-09T14:24:20.158Z,28.00
2022-11-09T14:27:23.405Z,28.30
2022-11-09T14:30:28.605Z,28.20
2022-11-09T14:33:34.883Z,28.40
2022-11-09T14:36:40.645Z,28.20
2022-11-09T14:39:49.193Z,28.20
2022-11-09T14:43:13.997Z,28.10
2022-11-09T14:46:20.027Z,28.00
2022-11-09T14:49:24.484Z,27.90
2022-11-09T14:52:29.188Z,27.80
2022-11-09T14:55:41.382Z,27.70
2022-11-09T14:58:47.636Z,27.80
2022-11-09T15:02:05.764Z,27.50
2022-11-09T15:05:08.133Z,27.80
2022-11-09T15:08:22.516Z,27.80
2022-11-09T15:11:39.232Z,27.90
2022-11-09T15:14:41.682Z,27.90
2022-11-09T15:17:46.637Z,28.10
2022-11-09T15:20:48.583Z,28.30
2022-11-09T15:24:08.691Z,28.30
2022-11-09T15:27:31.409Z,28.50
2022-11-09T15:30:46.137Z,28.60
2022-11-09T15:33:53.866Z,28.80
2022-11-09T15:36:56.309Z,28.80
2022-11-09T15:39:59.256Z,28.90
2022-11-09T15:43:02.821Z,28.90
2022-11-09T15:46:05.261Z,28.90
2022-11-09T15:49:15.517Z,28.90
2022-11-09T15:52:18.830Z,29.00
2022-11-09T15:55:28.090Z,29.00
2022-11-09T15:58:32.173Z,29.00
2022-11-09T16:01:34.426Z,29.10
2022-11-09T16:04:36.394Z,29.00
2022-11-09T16:07:46.781Z,29.00
2022-11-09T16:10:48.728Z,28.90
2022-11-09T16:13:50.893Z,29.00
2022-11-09T16:16:52.787Z,28.90
2022-11-09T16:19:55.036Z,29.00
2022-11-09T16:22:57.064Z,29.00
2022-11-09T16:25:59.719Z,28.90
2022-11-09T16:29:01.703Z,29.00
2022-11-09T16:32:07.309Z,28.90
2022-11-09T16:38:39.030Z,29.00
2022-11-09T16:41:42.014Z,28.90
2022-11-09T16:44:46.833Z,28.90
2022-11-09T16:47:52.810Z,28.90
2022-11-09T16:50:55.393Z,28.90
2022-11-09T16:53:57.437Z,29.10
2022-11-09T16:57:00.198Z,29.20
2022-11-09T17:00:02.284Z,29.40
2022-11-09T17:03:04.837Z,29.30
2022-11-09T17:06:11.084Z,29.20
2022-11-09T17:09:24.837Z,29.00
2022-11-09T17:12:26.715Z,28.80
2022-11-09T17:15:29.310Z,28.90
2022-11-09T17:18:31.515Z,29.10
2022-11-09T17:21:36.544Z,29.20
2022-11-09T17:24:38.522Z,29.40
2022-11-09T17:27:40.752Z,29.40
2022-11-09T17:30:42.671Z,29.40
2022-11-09T17:33:45.693Z,29.30
2022-11-09T17:37:03.777Z,29.00
2022-11-09T17:40:07.668Z,28.90
2022-11-09T17:43:09.593Z,28.70
2022-11-09T17:46:14.790Z,28.70
2022-11-09T17:49:16.879Z,28.80
2022-11-09T17:52:19.085Z,29.00
2022-11-09T17:55:21.071Z,28.90
2022-11-09T17:58:23.890Z,29.00
2022-11-09T18:01:25.891Z,29.10
2022-11-09T18:04:28.223Z,29.10
2022-11-09T18:07:31.167Z,29.30
2022-11-09T18:10:33.385Z,29.40
2022-11-09T18:13:35.463Z,29.60
2022-11-09T18:16:37.780Z,29.50
2022-11-09T18:19:39.697Z,29.40
2022-11-09T18:22:41.837Z,29.40
2022-11-09T18:25:44.314Z,29.30
2022-11-09T18:28:46.915Z,29.20
2022-11-09T18:31:49.556Z,29.20
2022-11-09T18:34:51.772Z,29.20
2022-11-09T18:37:53.756Z,29.10
2022-11-09T18:41:07.449Z,29.20
2022-11-09T18:44:10.237Z,29.00
2022-11-09T18:47:13.774Z,28.80
2022-11-09T18:50:17.280Z,28.70
2022-11-09T18:53:21.559Z,28.60
2022-11-09T18:56:25.451Z,28.50
2022-11-09T18:59:27.645Z,28.50
2022-11-09T19:02:29.620Z,28.70
2022-11-09T19:05:32.145Z,28.80
2022-11-09T19:08:52.859Z,28.80
2022-11-09T19:11:59.090Z,28.90
2022-11-09T19:15:02.102Z,28.80
2022-11-09T19:18:05.895Z,28.70
2022-11-09T19:21:47.853Z,28.60
2022-11-09T19:24:50.062Z,28.70
2022-11-09T19:27:51.950Z,28.70
2022-11-09T19:30:58.570Z,28.90
2022-11-09T19:34:00.859Z,28.90
2022-11-09T19:37:03.057Z,28.90
2022-11-09T19:40:05.521Z,28.80
2022-11-09T19:43:07.695Z,28.80
2022-11-09T19:46:09.680Z,28.60
2022-11-09T19:49:12.142Z,28.50
2022-11-09T19:52:14.111Z,28.40
2022-11-09T19:55:16.329Z,28.60
2022-11-09T19:58:21.424Z,28.90
2022-11-09T20:01:24.169Z,28.80
2022-11-09T20:04:26.658Z,28.60
2022-11-09T20:07:31.562Z,28.40
2022-11-09T20:10:37.414Z,28.40
2022-11-09T20:13:40.614Z,28.50
2022-11-09T20:16:44.444Z,28.70
2022-11-09T20:19:46.640Z,28.50
2022-11-09T20:22:49.782Z,28.60
2022-11-09T20:25:52.800Z,28.80
2022-11-09T20:28:55.527Z,28.70
2022-11-09T20:31:57.764Z,28.40
2022-11-09T20:35:00.350Z,28.30
2022-11-09T20:38:02.784Z,28.40
2022-11-09T20:41:10.800Z,28.10
2022-11-09T20:44:13.593Z,28.30
2022-11-09T20:47:30.133Z,28.40
2022-11-09T20:50:39.271Z,28.20
2022-11-09T20:53:41.195Z,28.10
2022-11-09T20:56:44.271Z,28.00
2022-11-09T20:59:46.154Z,28.10
2022-11-09T21:02:48.917Z,28.10
2022-11-09T21:05:58.943Z,28.10
2022-11-09T21:09:06.222Z,28.10
2022-11-09T21:12:24.950Z,28.10
2022-11-09T21:15:27.419Z,28.10
2022-11-09T21:18:29.386Z,28.20
2022-11-09T21:21:36.564Z,28.10
2022-11-09T21:24:57.267Z,28.20
2022-11-09T21:28:18.313Z,28.10
2022-11-09T21:31:20.263Z,28.00
2022-11-09T21:34:24.709Z,28.10
2022-11-09T21:37:26.619Z,27.90
2022-11-09T21:40:28.901Z,27.80
2022-11-09T21:43:30.963Z,27.80
2022-11-09T21:46:33.634Z,28.00
2022-11-09T21:49:35.621Z,28.00
2022-11-09T21:52:40.176Z,28.10
2022-11-09T21:55:43.085Z,28.00
2022-11-09T21:58:49.355Z,28.10
2022-11-09T22:01:52.143Z,28.10
2022-11-09T22:04:54.408Z,28.30
2022-11-09T22:07:56.359Z,28.30
2022-11-09T22:11:12.015Z,28.20
2022-11-09T22:14:37.479Z,28.20
2022-11-09T22:17:39.625Z,28.20
2022-11-09T22:20:57.333Z,28.30
2022-11-09T22:24:00.839Z,28.20
2022-11-09T22:27:04.037Z,28.40
2022-11-09T22:30:06.971Z,28.30
2022-11-09T22:33:08.926Z,28.60
2022-11-09T22:36:13.029Z,28.20
2022-11-09T22:39:14.894Z,28.10
2022-11-09T22:42:17.035Z,28.10
2022-11-09T22:45:19.121Z,28.10
2022-11-09T22:48:22.632Z,27.90
2022-11-09T22:51:24.762Z,27.80
2022-11-09T22:54:28.153Z,27.80
2022-11-09T22:57:32.893Z,28.00
2022-11-09T23:00:35.088Z,28.00
2022-11-09T23:03:37.072Z,28.00
2022-11-09T23:06:39.341Z,27.90
2022-11-09T23:09:41.270Z,27.90
2022-11-09T23:12:43.412Z,27.90
2022-11-09T23:15:58.666Z,27.90
2022-11-09T23:19:00.807Z,28.00
2022-11-09T23:22:06.920Z,28.10
2022-11-09T23:25:35.699Z,27.90
2022-11-09T23:28:38.256Z,28.00
2022-11-09T23:31:40.564Z,28.00
2022-11-09T23:34:42.468Z,27.90
2022-11-09T23:37:44.870Z,27.70
2022-11-09T23:40:47.138Z,27.90
2022-11-09T23:43:50.118Z,28.10
2022-11-09T23:46:52.262Z,28.10
2022-11-09T23:49:54.429Z,28.60
2022-11-09T23:53:00.737Z,28.70
2022-11-09T23:56:08.804Z,29.00
2022-11-09T23:59:10.696Z,29.10
